ADDS METAR Data INFO
IDs: Format: Raw Decoded Include TAF

Data at: 0430 UTC 26 May 2018

KBPI 260353Z AUTO 06006KT 10SM CLR 14/02 A3001 RMK AO2 SLP075 T01440022
KBPI 260253Z AUTO 11005KT 10SM CLR 19/01 A3002 RMK AO2 SLP072 T01890006 56014
KBPI 260153Z AUTO 19003KT 10SM CLR 23/01 A3002 RMK AO2 SLP073 T02280006
KBPI 260053Z AUTO VRB03KT 10SM CLR 23/M02 A3003 RMK AO2 SLP083 T02331022
KBPI 252353Z AUTO 25005KT 10SM CLR 24/M02 A3007 RMK AO2 SLP103 T02391017 10250 20194 56015
KBPI 252253Z AUTO 22010G17KT 10SM FEW110 24/M03 A3009 RMK AO2 SLP109 T02391028
KBPI 252153Z AUTO 21010G21KT 10SM CLR 24/M04 A3010 RMK AO2 SLP109 T02441039
KBPI 252053Z AUTO 22010G18KT 10SM CLR 24/M02 A3012 RMK AO2 SLP116 T02391022 56019
KBPI 251953Z AUTO 19007KT 10SM CLR 23/M01 A3014 RMK AO2 SLP126 T02281011
KBPI 251853Z AUTO 21010KT 10SM CLR 22/03 A3016 RMK AO2 SLP133 T02170028
KBPI 251753Z AUTO VRB04KT 10SM CLR 19/03 A3019 RMK AO2 SLP144 T01940028 10194 20028 58006
KBPI 251653Z AUTO VRB03KT 10SM CLR 17/04 A3020 RMK AO2 SLP148 T01720039
KBPI 251553Z AUTO 00000KT 10SM CLR 16/06 A3021 RMK AO2 SLP154 T01560056
KBPI 251453Z AUTO 07004KT 10SM CLR 13/06 A3021 RMK AO2 SLP157 T01330056 58003
KBPI 251353Z AUTO 01004KT 10SM CLR 09/06 A3022 RMK AO2 SLP164 T00940056
KBPI 251253Z AUTO 00000KT 10SM CLR 06/04 A3023 RMK AO2 SLP167 T00610039
KBPI 251153Z AUTO 07005KT 10SM CLR 03/02 A3022 RMK AO2 SLP173 T00280017 10089 20028 55001
KBPI 251053Z AUTO 09005KT 10SM CLR 03/02 A3022 RMK AO2 SLP162 T00280022
KBPI 250953Z AUTO 35007KT 10SM CLR 04/03 A3022 RMK AO2 SLP160 T00440033
KBPI 250853Z AUTO 36004KT 10SM CLR 04/03 A3023 RMK AO2 SLP166 T00440033 55000
KBPI 250753Z AUTO 00000KT 10SM CLR 05/03 A3023 RMK AO2 SLP166 T00500033
KBPI 250653Z AUTO 00000KT 10SM CLR 06/04 A3023 RMK AO2 SLP166 T00610039 402170033
KBPI 250553Z AUTO 36005KT 10SM CLR 08/04 A3023 RMK AO2 SLP164 T00780044 10200 20072 51002
KBPI 250453Z AUTO 02009KT 10SM CLR 10/05 A3023 RMK AO2 SLP163 T01000050
KBPI 250353Z AUTO 02011KT 10SM CLR 11/06 A3024 RMK AO2 SLP169 T01060061
KBPI 250253Z AUTO 02007KT 10SM CLR 12/07 A3023 RMK AO2 SLP170 T01170067 53005
KBPI 250153Z AUTO 34015KT 10SM CLR 14/06 A3021 RMK AO2 SLP167 T01440061
KBPI 250053Z AUTO 34017KT 10SM CLR 17/06 A3020 RMK AO2 SLP161 T01720056
KBPI 242353Z AUTO 32015KT 10SM CLR 18/04 A3021 RMK AO2 SLP163 T01830044 10217 20172 55001
KBPI 242253Z AUTO 33009G16KT 10SM CLR 21/04 A3020 RMK AO2 SLP154 T02110044
KBPI 242153Z AUTO 30015KT 10SM FEW065 FEW110 21/04 A3020 RMK AO2 SLP153 T02110044
KBPI 242053Z AUTO 24006KT 10SM SCT100 19/04 A3021 RMK AO2 SLP161 T01940039 58006
KBPI 241953Z AUTO 28012G17KT 10SM BKN060 BKN100 19/05 A3022 RMK AO2 SLP162 T01940050
KBPI 241853Z AUTO 29006KT 10SM BKN075 18/04 A3022 RMK AO2 SLP164 T01780044
KBPI 241753Z AUTO 24007KT 10SM FEW070 18/07 A3023 RMK AO2 SLP161 T01780067 10178 20033 55001
KBPI 241653Z AUTO 20003KT 10SM CLR 16/06 A3023 RMK AO2 SLP161 T01560056